Time;durP1;ratioP1;P1;durP2;ratioP2;P2;SDS_P1;SDS_P2;PMS_P1;PMS_P2;Temp;Humidity;BMP_temperature;BMP_pressure;BME280_temperature;BME280_humidity;BME280_pressure;Samples;Min_cycle;Max_cycle;Signal;HPM_P1;HPM_P2
2022/02/02 00:00:22;;;;;;;38.78;17.45;;;;;;;0.81;100.00;147874.56;1714527;81;21038;-61
2022/02/02 00:02:56;;;;;;;40.10;19.35;;;;;;;0.81;100.00;147875.88;1750647;80;21174;-62
2022/02/02 00:05:30;;;;;;;39.27;18.12;;;;;;;0.83;100.00;147879.72;1742669;82;22343;-61
2022/02/02 00:08:01;;;;;;;;;;;;;;;0.84;100.00;147882.28;1749844;81;21067;-62
2022/02/02 00:13:04;;;;;;;39.18;17.80;;;;;;;0.88;100.00;147891.31;1752637;81;21109;-61
2022/02/02 00:15:58;;;;;;;39.00;17.32;;;;;;;0.90;100.00;147896.47;1747444;80;21008;-62
2022/02/02 00:20:54;;;;;;;32.00;14.83;;;;;;;0.96;100.00;147913.22;1746877;80;21526;-62
2022/02/02 00:23:16;;;;;;;33.98;14.75;;;;;;;0.96;100.00;147911.91;1742345;81;21640;-63
2022/02/02 00:25:47;;;;;;;32.55;15.65;;;;;;;0.97;100.00;147914.48;1742537;82;21087;-61
2022/02/02 00:28:07;;;;;;;39.75;16.05;;;;;;;0.99;100.00;147919.63;1742692;81;21078;-62
2022/02/02 00:30:38;;;;;;;38.53;18.10;;;;;;;1.01;100.00;147924.83;1750585;80;21098;-62
2022/02/02 00:33:16;;;;;;;30.92;15.10;;;;;;;1.02;100.00;147927.41;1764489;81;21001;-62
2022/02/02 00:35:38;;;;;;;40.85;16.05;;;;;;;1.04;100.00;147931.23;1763429;79;20968;-62
2022/02/02 00:38:03;;;;;;;35.80;16.17;;;;;;;1.08;100.00;147941.53;1764036;79;21091;-62
2022/02/02 00:40:30;;;;;;;32.93;14.60;;;;;;;1.08;100.00;147942.84;1741788;81;21110;-62
2022/02/02 00:42:57;;;;;;;33.30;14.63;;;;;;;1.07;100.00;147940.27;1763338;81;21169;-62
2022/02/02 00:45:31;;;;;;;32.93;15.78;;;;;;;1.06;100.00;147937.69;1764943;80;21252;-61
2022/02/02 00:47:53;;;;;;;38.48;16.20;;;;;;;1.04;100.00;147932.55;1727653;82;21059;-63
2022/02/02 00:50:19;;;;;;;34.38;15.45;;;;;;;1.01;100.00;147924.83;1794360;78;20994;-62
2022/02/02 00:52:50;;;;;;;43.98;17.23;;;;;;;0.96;100.00;147911.91;1788119;78;21061;-59
2022/02/02 00:55:14;;;;;;;33.23;16.35;;;;;;;0.93;100.00;147904.19;1774070;80;21142;-59
2022/02/02 00:57:41;;;;;;;39.98;18.10;;;;;;;0.93;100.00;147904.19;1783033;80;21021;-59
2022/02/02 01:00:09;;;;;;;37.80;17.15;;;;;;;0.91;100.00;147899.03;1780658;80;21047;-58
2022/02/02 01:02:36;;;;;;;37.13;17.52;;;;;;;0.90;100.00;147896.47;1763220;79;20979;-61
2022/02/02 01:05:04;;;;;;;40.35;17.60;;;;;;;0.90;100.00;147896.47;1786559;79;21409;-59
2022/02/02 01:10:27;;;;;;;34.33;14.58;;;;;;;0.88;100.00;147891.31;1758553;80;21051;-63
2022/02/02 01:20:53;;;;;;;29.27;13.10;;;;;;;0.75;100.00;147860.39;1783006;79;21929;-62
2022/02/02 01:28:39;;;;;;;22.65;9.85;;;;;;;0.73;100.00;147853.98;1783436;79;21114;-59
2022/02/02 01:31:06;;;;;;;26.42;10.53;;;;;;;0.73;100.00;147855.25;1783947;80;21067;-60
2022/02/02 01:33:33;;;;;;;21.57;8.83;;;;;;;0.70;100.00;147848.84;1783717;78;21479;-59
2022/02/02 01:36:00;;;;;;;21.15;8.18;;;;;;;0.70;100.00;147847.52;1785329;78;21607;-62
2022/02/02 01:38:30;;;;;;;16.73;8.33;;;;;;;0.69;100.00;147844.95;1736822;80;21536;-62
2022/02/02 01:41:01;;;;;;;14.93;7.40;;;;;;;0.69;100.00;147568.16;1765752;80;21586;-58
2022/02/02 01:43:29;;;;;;;16.65;6.83;;;;;;;0.70;100.00;142710.69;1762755;79;21060;-59
2022/02/02 01:45:57;;;;;;;17.85;7.37;;;;;;;0.70;100.00;136228.06;1762901;80;21129;-59
2022/02/02 01:48:33;;;;;;;14.63;6.12;;;;;;;0.69;100.00;130941.80;1745603;81;21072;-62
2022/02/02 01:53:33;;;;;;;18.32;6.55;;;;;;;0.68;100.00;123111.78;1763242;81;21056;-58
2022/02/02 01:55:51;;;;;;;20.00;5.60;;;;;;;0.67;100.00;120050.30;1758142;81;21486;-59
2022/02/02 01:58:38;;;;;;;18.40;5.97;;;;;;;0.65;100.00;114955.14;1763993;80;21675;-63
2022/02/02 02:00:46;;;;;;;13.18;5.10;;;;;;;0.65;100.00;112074.49;1760437;81;21671;-61
2022/02/02 02:03:13;;;;;;;15.65;5.90;;;;;;;0.64;100.00;110547.00;1772782;79;21043;-60
2022/02/02 02:05:39;;;;;;;15.88;5.53;;;;;;;0.63;100.00;108851.90;1764674;79;21422;-62
2022/02/02 02:08:07;;;;;;;16.73;6.03;;;;;;;0.62;100.00;106988.50;1761681;80;21148;-61
2022/02/02 02:10:34;;;;;;;20.80;6.17;;;;;;;0.60;100.00;104617.98;1709113;81;22352;-61
2022/02/02 02:13:09;;;;;;;14.58;5.60;;;;;;;0.61;100.00;103097.66;1778323;80;21090;-62
2022/02/02 02:15:32;;;;;;;20.60;6.62;;;;;;;0.60;100.00;101913.14;1779279;80;21054;-61
2022/02/02 02:18:00;;;;;;;17.10;6.55;;;;;;;0.59;100.00;101066.83;1773939;80;21066;-62
2022/02/02 02:20:27;;;;;;;26.02;6.65;;;;;;;0.59;100.00;99715.98;1749429;81;21143;-61
2022/02/02 02:22:54;;;;;;;17.50;6.72;;;;;;;0.58;100.00;96676.84;1780930;80;21045;-59
2022/02/02 02:25:24;;;;;;;28.27;6.75;;;;;;;0.57;100.00;95664.11;1749702;80;21588;-60
2022/02/02 02:27:51;;;;;;;21.70;7.10;;;;;;;0.57;100.00;94315.41;1749525;81;21493;-59
2022/02/02 02:30:39;;;;;;;27.00;7.87;;;;;;;0.58;100.00;92462.63;1763631;81;20972;-60
2022/02/02 02:39:06;;;;;;;17.92;7.10;;;;;;;0.56;100.00;90440.03;1762780;81;20974;-59
2022/02/02 02:57:13;;;;;;;;;;;;;;;0.53;100.00;85220.13;1747892;80;21457;-58
2022/02/02 02:59:46;;;;;;;17.87;7.87;;;;;;;0.54;100.00;83877.05;1770586;80;20254;-59
2022/02/02 03:02:55;;;;;;;16.35;7.03;;;;;;;0.54;100.00;81692.52;1781668;79;22199;-59
2022/02/02 03:56:03;;;;;;;14.07;6.55;;;;;;;0.75;100.00;42471.00;1729632;82;21649;-60
2022/02/02 03:58:36;;;;;;;15.90;6.35;;;;;;;0.77;100.00;41642.30;1743458;80;21507;-61
2022/02/02 04:04:40;;;;;;;;;;;;;;;0.82;100.00;40815.64;1765470;79;21078;-62
2022/02/02 04:06:22;;;;;;;11.48;4.92;;;;;;;0.83;100.00;40816.77;1723199;82;20532;-60
2022/02/02 04:08:42;;;;;;;11.57;4.55;;;;;;;0.84;100.00;40319.54;1742221;81;21120;-61
2022/02/02 04:11:25;;;;;;;11.10;4.62;;;;;;;0.87;100.00;39657.48;1744012;82;21006;-59
2022/02/02 04:37:30;;;;;;;10.10;4.78;;;;;;;0.85;100.00;38329.04;1729621;80;21181;-59
2022/02/02 04:54:25;;;;;;;17.32;5.03;;;;;;;0.94;100.00;30546.32;1781156;80;20997;-59
2022/02/02 05:02:43;;;;;;;13.05;5.42;;;;;;;1.01;100.00;26579.41;1783009;80;21180;-62
2022/02/02 05:07:25;;;;;;;12.33;5.12;;;;;;;1.04;100.00;25093.08;1661274;84;21626;-61
2022/02/02 05:10:08;;;;;;;13.72;5.50;;;;;;;1.05;100.00;24432.50;1666213;84;21103;-59
2022/02/02 05:50:25;;;;;;;15.03;5.65;;;;;;;1.39;100.00;19326.50;1755557;80;21061;-63
2022/02/02 05:52:37;;;;;;;12.88;5.00;;;;;;;1.42;100.00;18832.42;1772742;80;20966;-62
2022/02/02 05:55:05;;;;;;;14.38;5.83;;;;;;;1.45;100.00;18338.00;1776131;80;21121;-63
2022/02/02 05:57:33;;;;;;;11.35;4.55;;;;;;;1.50;100.00;18174.80;1773771;80;21257;-63
2022/02/02 06:00:03;;;;;;;12.50;4.45;;;;;;;1.54;100.00;17846.33;1753378;80;21040;-63
2022/02/02 06:02:38;;;;;;;9.48;3.45;;;;;;;1.58;100.00;17517.50;1763939;80;21085;-63
2022/02/02 06:05:07;;;;;;;8.37;3.47;;;;;;;1.60;100.00;17848.34;1768934;80;21438;-63
2022/02/02 06:07:38;;;;;;;12.40;4.35;;;;;;;1.62;100.00;18179.05;1773723;79;21130;-63
2022/02/02 06:10:08;;;;;;;10.95;4.37;;;;;;;1.64;100.00;18344.88;1772342;79;20974;-63
2022/02/02 06:12:35;;;;;;;8.53;3.60;;;;;;;1.67;100.00;18181.08;1771316;80;21349;-63
2022/02/02 06:15:08;;;;;;;16.50;3.65;;;;;;;1.71;100.00;17852.35;1778295;80;20940;-62
2022/02/02 06:17:37;;;;;;;7.58;3.15;;;;;;;1.77;100.00;17689.06;1779573;78;21047;-63
2022/02/02 06:20:06;;;;;;;11.00;3.40;;;;;;;1.80;100.00;17855.45;1738080;80;21067;-61
2022/02/02 06:22:33;;;;;;;14.45;4.33;;;;;;;1.83;100.00;18186.63;1779446;80;21053;-63
2022/02/02 06:25:07;;;;;;;14.05;4.03;;;;;;;1.85;100.00;18352.52;1779094;80;21046;-63
2022/02/02 06:27:36;;;;;;;9.93;3.47;;;;;;;1.88;100.00;18518.62;1777285;80;21020;-60
2022/02/02 06:30:07;;;;;;;8.20;3.37;;;;;;;1.88;100.00;18684.00;1781652;78;21063;-60
2022/02/02 06:32:50;;;;;;;10.20;3.58;;;;;;;1.90;100.00;19180.36;1781281;79;21115;-63
2022/02/02 06:35:17;;;;;;;12.00;3.50;;;;;;;1.90;100.00;19675.83;1767674;79;20960;-60
2022/02/02 06:37:44;;;;;;;12.28;3.70;;;;;;;1.90;100.00;20337.05;1773964;79;21061;-60
2022/02/02 06:40:12;;;;;;;10.00;3.58;;;;;;;1.92;100.00;20337.87;1774873;80;21066;-60
2022/02/02 06:42:40;;;;;;;9.40;3.65;;;;;;;1.96;100.00;20174.00;1781206;80;21471;-60
2022/02/02 06:45:08;;;;;;;10.48;3.80;;;;;;;1.97;100.00;20339.69;1769981;79;21200;-60
2022/02/02 06:47:37;;;;;;;7.03;3.10;;;;;;;1.98;100.00;20836.21;1755605;81;21123;-60
2022/02/02 06:50:21;;;;;;;9.75;2.90;;;;;;;2.00;100.00;21498.40;1747031;80;21375;-60
2022/02/02 06:53:00;;;;;;;10.58;2.42;;;;;;;2.00;100.00;22325.07;1761294;79;21092;-60
2022/02/02 06:55:33;;;;;;;12.75;3.05;;;;;;;1.99;100.00;23813.74;1730925;81;21119;-60
2022/02/02 06:58:57;;;;;;;12.55;3.00;;;;;;;1.98;100.00;25633.65;1725220;82;21061;-61
2022/02/02 07:02:08;;;;;;;8.88;3.08;;;;;;;1.98;100.00;26130.61;1737073;81;21639;-61
2022/02/02 07:04:00;;;;;;;13.98;3.20;;;;;;;2.00;100.00;26462.80;1713146;82;21476;-60
2022/02/02 07:06:29;;;;;;;12.03;3.20;;;;;;;2.02;100.00;26960.43;1729326;81;21089;-64
2022/02/02 07:09:52;;;;;;;10.72;2.72;;;;;;;2.04;100.00;27126.84;1730038;82;22496;-63
2022/02/02 07:11:27;;;;;;;10.43;2.60;;;;;;;2.06;100.00;27790.82;1738378;79;21843;-64
2022/02/02 07:16:53;;;;;;;10.95;3.05;;;;;;;2.04;100.00;30938.85;1753309;81;21107;-60
2022/02/02 07:32:31;;;;;;;12.28;3.37;;;;;;;2.16;100.00;35925.58;1732256;82;21059;-65
2022/02/02 07:35:19;;;;;;;14.33;4.20;;;;;;;2.15;100.00;38085.06;1735099;80;21009;-61
2022/02/02 07:37:57;;;;;;;14.35;3.62;;;;;;;2.14;100.00;40079.54;1734405;81;21524;-60
2022/02/02 07:40:24;;;;;;;11.55;3.87;;;;;;;2.15;100.00;42243.11;1733790;81;21074;-60
2022/02/02 07:42:52;;;;;;;15.90;3.67;;;;;;;2.17;100.00;43742.45;1730380;82;21656;-61
2022/02/02 07:45:21;;;;;;;11.55;3.20;;;;;;;2.19;100.00;43744.45;1728860;81;22225;-62
2022/02/02 07:48:01;;;;;;;10.85;3.70;;;;;;;2.25;100.00;43915.37;1719644;80;21058;-61
2022/02/02 07:50:32;;;;;;;13.03;4.35;;;;;;;2.28;100.00;45084.16;1727235;81;21191;-62
2022/02/02 07:53:02;;;;;;;15.00;3.60;;;;;;;2.36;100.00;45756.46;1724863;81;21533;-60
2022/02/02 07:55:27;;;;;;;16.70;3.60;;;;;;;2.38;100.00;48092.16;1728557;81;22091;-64
2022/02/02 07:57:57;;;;;;;12.00;3.98;;;;;;;2.41;100.00;50597.44;1726728;80;21100;-65
2022/02/02 08:00:24;;;;;;;16.17;4.42;;;;;;;2.43;100.00;53772.58;1735832;81;21001;-63
2022/02/02 08:03:07;;;;;;;14.10;4.47;;;;;;;2.46;100.00;56615.99;1737214;80;21676;-60
2022/02/02 08:05:31;;;;;;;16.80;5.03;;;;;;;2.51;100.00;58183.97;1759215;80;21083;-60
2022/02/02 08:10:29;;;;;;;11.18;4.12;;;;;;;2.57;100.00;61481.00;1738089;80;21142;-64
2022/02/02 08:13:03;;;;;;;12.47;4.30;;;;;;;2.61;100.00;62824.52;1735791;80;21075;-64
2022/02/02 08:15:28;;;;;;;18.40;5.72;;;;;;;2.61;100.00;70205.83;1719344;81;21782;-64
2022/02/02 08:17:55;;;;;;;20.15;5.53;;;;;;;2.60;100.00;76423.40;1731136;80;21771;-64
2022/02/02 08:20:23;;;;;;;15.48;4.87;;;;;;;2.60;100.00;79620.54;1735358;81;21007;-65
2022/02/02 08:22:50;;;;;;;12.63;5.10;;;;;;;2.62;100.00;88053.12;1739394;81;21086;-64
2022/02/02 08:25:25;;;;;;;16.57;5.50;;;;;;;2.62;100.00;88053.12;1734916;81;21116;-61
2022/02/02 08:27:48;;;;;;;15.60;4.80;;;;;;;2.62;100.00;90755.02;1732511;81;21518;-62
2022/02/02 08:30:15;;;;;;;12.63;4.78;;;;;;;2.64;100.00;95322.56;1738698;80;21030;-60
2022/02/02 08:32:47;;;;;;;14.43;5.20;;;;;;;2.58;100.00;105647.58;1733049;81;21151;-64
2022/02/02 08:35:11;;;;;;;12.70;4.92;;;;;;;2.58;100.00;108701.67;1761620;79;21067;-60
2022/02/02 08:37:41;;;;;;;14.37;5.23;;;;;;;2.57;100.00;111248.61;1760601;79;20983;-60
2022/02/02 08:40:30;;;;;;;15.78;5.28;;;;;;;2.57;100.00;116009.60;1729741;81;21263;-64
2022/02/02 08:42:50;;;;;;;15.40;5.87;;;;;;;2.57;100.00;120605.62;1752003;81;21070;-64
2022/02/02 08:45:22;;;;;;;14.93;6.15;;;;;;;2.60;100.00;117715.63;1746053;80;21521;-65
2022/02/02 08:47:55;;;;;;;15.35;5.37;;;;;;;2.66;100.00;113475.10;1742684;79;21083;-64
2022/02/02 08:50:26;;;;;;;17.92;5.92;;;;;;;2.72;100.00;112975.80;1726694;81;21060;-63
2022/02/02 08:52:54;;;;;;;19.42;5.67;;;;;;;2.74;100.00;120810.72;1747047;81;21849;-60
2022/02/02 08:55:17;;;;;;;29.02;6.95;;;;;;;2.75;100.00;125076.19;1750972;80;21060;-62
2022/02/02 08:57:52;;;;;;;30.85;7.75;;;;;;;2.77;100.00;130716.31;1746970;80;21125;-61
2022/02/02 09:00:21;;;;;;;17.60;6.25;;;;;;;2.81;100.00;132264.09;1741195;80;21468;-64
2022/02/02 09:02:55;;;;;;;21.55;7.05;;;;;;;2.85;100.00;136037.59;1748610;80;21029;-60
2022/02/02 09:05:20;;;;;;;15.32;6.33;;;;;;;2.86;100.00;145720.47;1746887;81;21141;-61
2022/02/02 09:07:48;;;;;;;28.35;8.25;;;;;;;2.86;100.00;148384.97;1742991;80;21667;-65
2022/02/02 09:10:24;;;;;;;16.05;6.78;;;;;;;2.85;100.00;148383.70;1746569;80;21568;-65
2022/02/02 09:21:58;;;;;;;34.20;8.35;;;;;;;2.92;100.00;148399.17;1744309;80;21639;-65
2022/02/02 09:24:21;;;;;;;32.67;8.75;;;;;;;2.92;100.00;148399.17;1733149;80;21582;-61
2022/02/02 09:31:48;;;;;;;29.55;9.13;;;;;;;2.93;100.00;148401.75;1736474;80;21263;-64
2022/02/02 09:34:03;;;;;;;26.37;9.20;;;;;;;2.96;100.00;148409.48;1734685;80;21519;-65
2022/02/02 09:36:31;;;;;;;21.33;8.95;;;;;;;3.02;100.00;148425.00;1752554;79;21042;-66
2022/02/02 09:39:07;;;;;;;22.00;9.60;;;;;;;3.03;100.00;148427.58;1749944;80;21085;-60
2022/02/02 09:41:39;;;;;;;27.87;10.50;;;;;;;3.06;100.00;148435.31;1770903;80;21102;-63
2022/02/02 09:44:07;;;;;;;28.75;10.72;;;;;;;3.09;100.00;148443.05;1775416;80;21114;-65
2022/02/02 09:49:26;;;;;;;22.87;10.88;;;;;;;3.14;100.00;148454.67;1772432;80;21058;-61
2022/02/02 09:51:52;;;;;;;29.60;10.93;;;;;;;3.18;100.00;148463.67;1772388;79;21308;-60
2022/02/02 09:54:21;;;;;;;24.23;9.70;;;;;;;3.22;100.00;148474.03;1776524;80;21557;-61
2022/02/02 10:02:31;;;;;;;33.48;12.85;;;;;;;3.28;100.00;148489.50;1778212;79;21503;-62
2022/02/02 10:10:45;;;;;;;44.70;19.67;;;;;;;3.31;100.00;148497.25;1781242;79;21103;-62
2022/02/02 10:15:33;;;;;;;51.88;22.25;;;;;;;3.36;100.00;148510.14;1770106;80;21106;-62
2022/02/02 10:18:08;;;;;;;46.63;21.33;;;;;;;3.37;100.00;148511.45;1770900;80;21102;-64
2022/02/02 10:20:34;;;;;;;52.90;24.70;;;;;;;3.33;100.00;148501.13;1776376;80;21093;-63
2022/02/02 10:23:04;;;;;;;53.35;24.25;;;;;;;3.26;100.00;148484.34;1745785;80;21138;-63
2022/02/02 10:25:43;;;;;;;53.73;21.93;;;;;;;3.24;100.00;148479.19;1765685;79;21865;-63
2022/02/02 10:28:18;;;;;;;91.42;40.03;;;;;;;3.24;100.00;148480.45;1770012;79;21063;-62
2022/02/02 10:30:54;;;;;;;117.77;52.83;;;;;;;3.22;100.00;148474.03;1781872;79;21079;-64
2022/02/02 10:33:24;;;;;;;91.75;39.83;;;;;;;3.21;100.00;148471.47;1777653;79;21130;-64
2022/02/02 10:35:57;;;;;;;129.00;58.80;;;;;;;3.12;100.00;148450.78;1770126;79;21827;-64
2022/02/02 10:38:28;;;;;;;111.77;47.08;;;;;;;3.03;100.00;148427.58;1771768;78;21685;-63
2022/02/02 10:44:04;;;;;;;176.97;69.80;;;;;;;2.94;100.00;148404.33;1773170;79;21788;-63
2022/02/02 10:46:27;;;;;;;79.87;33.63;;;;;;;2.92;100.00;148399.17;1759104;79;21023;-63
2022/02/02 10:49:00;;;;;;;147.22;55.17;;;;;;;2.84;100.00;148381.12;1773093;79;22218;-63
2022/02/02 10:51:54;;;;;;;85.95;31.97;;;;;;;2.78;100.00;148365.66;1764073;80;21490;-63
2022/02/02 10:56:56;;;;;;;82.47;31.27;;;;;;;2.71;100.00;148347.56;1761431;80;21102;-63
2022/02/02 11:07:20;;;;;;;80.07;29.67;;;;;;;2.39;100.00;148268.89;1750151;79;21759;-63
2022/02/02 11:09:47;;;;;;;116.17;45.63;;;;;;;2.40;100.00;148270.20;1755188;79;21098;-64
2022/02/02 11:12:16;;;;;;;121.25;51.15;;;;;;;2.41;100.00;148272.78;1760707;80;20953;-63
2022/02/02 11:15:08;;;;;;;77.00;29.00;;;;;;;2.40;100.00;148270.20;1758895;79;20940;-64
2022/02/02 11:18:09;;;;;;;78.52;32.25;;;;;;;2.33;100.00;148253.44;1758159;79;21059;-63
2022/02/02 11:20:38;;;;;;;94.90;38.08;;;;;;;2.31;100.00;148246.97;1758597;79;21576;-63
2022/02/02 11:23:06;;;;;;;106.05;37.70;;;;;;;2.32;100.00;148249.55;1753579;79;21115;-63
2022/02/02 11:25:35;;;;;;;137.52;53.90;;;;;;;2.34;100.00;148254.75;1754840;79;21075;-64
2022/02/02 11:28:05;;;;;;;127.62;49.00;;;;;;;2.36;100.00;148261.16;1754730;79;21895;-64
2022/02/02 11:30:36;;;;;;;84.00;33.23;;;;;;;2.37;100.00;148262.48;1761053;79;21412;-64
2022/02/02 11:33:19;;;;;;;71.55;26.77;;;;;;;2.37;100.00;148262.48;1757595;79;21602;-61
2022/02/02 11:35:49;;;;;;;63.98;24.32;;;;;;;2.35;100.00;148258.59;1763127;79;21104;-65
2022/02/02 11:38:28;;;;;;;71.00;25.68;;;;;;;2.33;100.00;148252.17;1756760;79;21573;-62
2022/02/02 11:41:37;;;;;;;63.00;23.77;;;;;;;2.32;100.00;148249.55;1740327;79;21505;-62
2022/02/02 11:44:02;;;;;;;55.25;22.00;;;;;;;2.38;100.00;148265.06;1726081;81;21071;-65
2022/02/02 11:50:00;;;;;;;64.70;22.07;;;;;;;2.46;100.00;148285.67;1759315;79;21367;-65
2022/02/02 11:52:49;;;;;;;54.70;20.15;;;;;;;2.44;100.00;148280.52;1754531;80;21083;-64
2022/02/02 11:55:30;;;;;;;66.02;24.55;;;;;;;2.47;100.00;148288.25;1762323;79;21105;-66
2022/02/02 12:00:43;;;;;;;58.38;23.52;;;;;;;2.54;100.00;148306.34;1764364;79;21036;-64
2022/02/02 12:19:11;;;;;;;90.42;34.70;;;;;;;2.57;100.00;148314.06;1761125;80;21047;-65
2022/02/02 12:47:51;;;;;;;58.00;22.75;;;;;;;2.72;100.00;148350.16;1755338;79;21052;-63
2022/02/02 12:56:15;;;;;;;45.60;19.50;;;;;;;2.77;100.00;148363.09;1754711;79;21117;-67
2022/02/02 12:58:30;;;;;;;69.75;27.93;;;;;;;2.78;100.00;148365.66;1768852;78;21141;-62
2022/02/02 13:01:09;;;;;;;37.73;15.48;;;;;;;2.84;100.00;148381.12;1782807;78;21090;-63
2022/02/02 13:03:38;;;;;;;33.78;14.18;;;;;;;2.87;100.00;148387.55;1709662;81;21131;-64
2022/02/02 13:06:21;;;;;;;34.45;14.80;;;;;;;2.85;100.00;148383.70;1756754;79;21103;-66
2022/02/02 13:08:51;;;;;;;31.70;13.53;;;;;;;2.89;100.00;148392.75;1778798;79;21451;-64
2022/02/02 13:11:30;;;;;;;37.35;14.05;;;;;;;2.99;100.00;148417.27;1789762;79;21098;-65
2022/02/02 13:13:55;;;;;;;35.40;15.32;;;;;;;3.05;100.00;148431.42;1792297;78;21080;-64
2022/02/02 13:16:26;;;;;;;33.95;14.33;;;;;;;3.08;100.00;148439.16;1734640;79;21141;-64
2022/02/02 13:18:56;;;;;;;29.32;13.60;;;;;;;3.11;100.00;148448.20;1781457;79;21005;-64
2022/02/02 13:21:27;;;;;;;28.02;13.32;;;;;;;3.12;100.00;148450.78;1788972;79;21031;-64
2022/02/02 13:24:08;;;;;;;29.23;12.95;;;;;;;3.18;100.00;148463.67;1787583;78;21055;-64
2022/02/02 13:26:36;;;;;;;29.20;13.38;;;;;;;3.19;100.00;148466.25;1784820;79;21536;-64
2022/02/02 13:29:14;;;;;;;32.90;13.30;;;;;;;3.19;100.00;148466.25;1787354;79;21612;-64
2022/02/02 13:38:20;;;;;;;34.08;14.70;;;;;;;3.04;100.00;148430.16;1777721;78;21685;-65
2022/02/02 13:54:06;;;;;;;43.17;16.42;;;;;;;2.84;100.00;148379.81;1760582;79;21528;-64
2022/02/02 14:03:48;;;;;;;40.75;15.93;;;;;;;2.88;100.00;148388.86;1758428;80;21071;-64
2022/02/02 14:31:04;;;;;;;;;;;;;;;2.77;100.00;148363.09;1771649;79;21509;-64
2022/02/02 14:31:23;;;;;;;48.28;17.87;;;;;;;2.66;100.00;148334.69;1771649;79;21026;-63
2022/02/02 14:33:54;;;;;;;38.15;16.20;;;;;;;2.62;100.00;148324.38;1756836;79;21063;-62
2022/02/02 14:36:26;;;;;;;44.50;16.97;;;;;;;2.59;100.00;148317.91;1769246;79;21097;-61
2022/02/02 14:39:11;;;;;;;45.73;18.65;;;;;;;2.55;100.00;148307.59;1776102;79;21064;-62
2022/02/02 14:44:27;;;;;;;47.40;19.07;;;;;;;2.55;100.00;148308.91;1735632;80;21059;-63
2022/02/02 14:47:00;;;;;;;45.85;19.25;;;;;;;2.54;100.00;148306.34;1764048;79;21523;-62
2022/02/02 14:49:24;;;;;;;50.80;19.15;;;;;;;2.55;100.00;148308.91;1761015;79;21093;-62
2022/02/02 14:52:01;;;;;;;44.73;18.25;;;;;;;2.54;100.00;148306.34;1769028;79;21023;-62
2022/02/02 14:54:44;;;;;;;47.03;18.73;;;;;;;2.52;100.00;148299.88;1770856;79;21086;-61
2022/02/02 15:27:19;;;;;;;31.23;13.58;;;;;;;2.40;100.00;148271.47;1716976;81;21114;-63
2022/02/02 15:32:17;;;;;;;33.20;15.68;;;;;;;2.34;100.00;148256.02;1731154;81;20985;-62
2022/02/02 15:34:50;;;;;;;31.35;14.13;;;;;;;2.34;100.00;148254.75;1764522;81;21111;-63
2022/02/02 15:37:29;;;;;;;36.00;15.93;;;;;;;2.35;100.00;148257.33;1745157;80;21106;-62
2022/02/02 15:42:40;;;;;;;29.37;13.30;;;;;;;2.38;100.00;148265.06;1765718;79;21101;-63
2022/02/02 15:54:43;;;;;;;28.57;12.30;;;;;;;2.39;100.00;148267.63;1771148;79;21039;-62
2022/02/02 15:58:35;;;;;;;28.42;11.68;;;;;;;2.32;100.00;148249.55;1768549;80;21115;-63
2022/02/02 16:03:45;;;;;;;23.52;10.93;;;;;;;2.27;100.00;148237.98;1777926;80;21296;-62
2022/02/02 16:06:19;;;;;;;25.30;12.10;;;;;;;2.26;100.00;148236.66;1777007;79;21703;-62
2022/02/02 16:08:46;;;;;;;24.85;12.58;;;;;;;2.24;100.00;148231.52;1774137;79;21143;-61
2022/02/02 16:11:24;;;;;;;28.05;13.83;;;;;;;2.24;100.00;148231.52;1764666;79;21040;-62
2022/02/02 16:13:51;;;;;;;31.55;14.43;;;;;;;2.21;100.00;148223.78;1766643;80;21068;-63
2022/02/02 16:19:02;;;;;;;29.65;15.43;;;;;;;2.14;100.00;148207.02;1776654;79;21553;-62
2022/02/02 16:37:36;;;;;;;48.95;22.22;;;;;;;1.88;100.00;148139.98;1774172;80;21154;-62
2022/02/02 16:40:01;;;;;;;48.00;20.82;;;;;;;1.86;100.00;148136.09;1776696;80;21424;-63
2022/02/02 16:45:13;;;;;;;41.08;19.20;;;;;;;1.78;100.00;148115.50;1759002;79;21048;-66
2022/02/02 16:47:40;;;;;;;43.42;18.87;;;;;;;1.77;100.00;148114.23;1768809;79;21501;-63
2022/02/02 16:50:13;;;;;;;35.48;16.32;;;;;;;1.78;100.00;148116.81;1765216;80;21482;-62
2022/02/02 16:52:38;;;;;;;30.08;13.80;;;;;;;1.83;100.00;148128.38;1795778;79;21067;-65
2022/02/02 16:55:14;;;;;;;28.70;13.70;;;;;;;1.88;100.00;148139.98;1805156;79;21549;-66
2022/02/02 16:57:53;;;;;;;26.80;12.88;;;;;;;1.92;100.00;148151.59;1762463;79;21524;-64
2022/02/02 17:30:27;;;;;;;41.42;18.17;;;;;;;1.69;100.00;148094.89;1763222;81;21083;-65
2022/02/02 17:32:52;;;;;;;40.55;17.00;;;;;;;1.68;100.00;148092.31;1762494;81;20964;-62
2022/02/02 17:40:31;;;;;;;36.40;16.95;;;;;;;1.60;100.00;148071.66;1763662;81;21075;-62
2022/02/02 17:45:38;;;;;;;41.65;19.35;;;;;;;1.60;100.00;148071.66;1763056;81;20988;-62
2022/02/02 18:20:25;;;;;;;41.95;18.40;;;;;;;1.09;100.00;147945.42;1736304;82;21612;-62
2022/02/02 18:22:52;;;;;;;35.98;16.57;;;;;;;1.02;100.00;147927.41;1735865;82;21449;-61
2022/02/02 18:27:52;;;;;;;37.05;15.45;;;;;;;0.94;100.00;147906.77;1766963;81;21054;-63
2022/02/02 18:32:57;;;;;;;36.42;16.02;;;;;;;0.85;100.00;147886.17;1763637;81;21078;-63
2022/02/02 18:35:16;;;;;;;37.93;17.42;;;;;;;0.84;100.00;147883.59;1760317;81;21107;-62
2022/02/02 18:58:56;;;;;;;44.45;20.15;;;;;;;0.66;100.00;147837.23;1763391;81;21032;-62
2022/02/02 19:01:18;;;;;;;46.55;21.70;;;;;;;0.60;100.00;147823.05;1758257;81;21084;-61
2022/02/02 19:53:15;;;;;;;25.50;11.83;;;;;;;0.60;100.00;147821.78;1707804;80;21109;-61
2022/02/02 19:55:28;;;;;;;30.62;14.68;;;;;;;0.58;100.00;147816.64;1743477;80;21476;-61
2022/02/02 20:03:50;;;;;;;24.98;12.75;;;;;;;0.64;100.00;147832.08;1778352;77;21459;-62
2022/02/02 20:06:05;;;;;;;25.35;13.45;;;;;;;0.67;100.00;147839.81;1763392;81;21711;-61
2022/02/02 20:08:45;;;;;;;22.00;12.07;;;;;;;0.67;100.00;147839.81;1717870;83;22050;-61
2022/02/02 20:11:15;;;;;;;25.68;12.80;;;;;;;0.64;100.00;147832.08;1734858;82;21115;-61
2022/02/02 20:13:39;;;;;;;23.12;12.15;;;;;;;0.65;100.00;147834.66;1772709;80;21029;-61
2022/02/02 20:16:06;;;;;;;23.42;12.47;;;;;;;0.67;100.00;147839.81;1774488;79;21046;-62
2022/02/02 20:18:42;;;;;;;23.67;12.60;;;;;;;0.68;100.00;147842.38;1779894;79;21339;-62
2022/02/02 20:21:07;;;;;;;20.65;11.15;;;;;;;0.71;100.00;147850.09;1774386;80;21117;-63
2022/02/02 20:23:32;;;;;;;23.35;11.95;;;;;;;0.79;100.00;147870.73;1756830;79;21063;-63
2022/02/02 20:25:59;;;;;;;23.95;12.23;;;;;;;0.81;100.00;147875.88;1791259;79;21070;-64
2022/02/02 20:28:26;;;;;;;23.57;12.20;;;;;;;0.82;100.00;147878.45;1765577;81;21559;-64
2022/02/02 20:30:53;;;;;;;22.50;11.45;;;;;;;0.87;100.00;147888.75;1765051;81;21559;-61
2022/02/02 20:33:20;;;;;;;22.40;12.00;;;;;;;0.89;100.00;147895.20;1765669;81;20990;-62
2022/02/02 20:35:47;;;;;;;27.30;12.55;;;;;;;0.91;100.00;147899.03;1746636;82;21079;-60
2022/02/02 20:38:13;;;;;;;23.55;12.13;;;;;;;0.92;100.00;147901.63;1765904;81;21059;-61
2022/02/02 20:40:40;;;;;;;22.00;12.05;;;;;;;0.92;100.00;147901.63;1779999;80;21064;-61
2022/02/02 20:43:25;;;;;;;23.65;11.33;;;;;;;0.90;100.00;147896.47;1779521;80;21970;-60
2022/02/02 21:07:27;;;;;;;24.98;13.60;;;;;;;0.78;100.00;147868.16;1749491;82;21068;-63
2022/02/02 21:15:26;;;;;;;27.25;12.78;;;;;;;0.88;100.00;147891.31;1748229;81;21170;-63
2022/02/02 21:17:54;;;;;;;;;;;;;;;0.90;100.00;147896.47;1751629;81;20985;-63
2022/02/02 21:20:32;;;;;;;29.00;13.78;;;;;;;0.87;100.00;147890.02;1750483;80;20120;-62
2022/02/02 21:23:03;;;;;;;29.48;14.90;;;;;;;0.85;100.00;147884.86;1749408;80;21136;-63
2022/02/02 21:25:44;;;;;;;35.55;16.15;;;;;;;0.81;100.00;147875.88;1749063;81;21101;-64
2022/02/02 21:28:09;;;;;;;35.50;16.30;;;;;;;0.79;100.00;147870.73;1747656;81;21095;-61
2022/02/02 21:30:38;;;;;;;33.95;15.20;;;;;;;0.82;100.00;147878.45;1747164;81;21002;-61
2022/02/02 21:33:04;;;;;;;31.30;15.28;;;;;;;0.87;100.00;147888.75;1749634;81;21080;-63